Latest Weather Observations for Bega

IDN60801

Issued at 12:05 pm EDT Tuesday 25 November 2014 (issued every 30 minutes, with the page automatically refreshed every 10 minutes)

About weather observations | Map of weather stations | Latest weather observations for NSW | Other Formats
Station Details ID: 069139 Name: BEGA AWS Lat: -36.67 Lon: 149.82 Height: 41.0 m
Data from the previous 72 hours. | See also: Recent months at Bega
Date/Time
EDT
Temp
°C
App
Temp
°C
Dew
Point
Rel
Hum
%
Delta-T
°C
Wind Press
QNH
hPa
Press
MSL
hPa
Rain
since 9 am
mm
Dir
 
Spd
km/h
Gust
km/h
Spd
kts
Gust
kts
25/12:00pm 22.1 17.5 5.5 34 8.3 SSW 19 32 10 17 1014.8 1014.8 0.0
25/11:30am 22.4 17.8 5.8 34 8.4 W 19 24 10 13 1014.7 1014.7 0.0
25/11:00am 21.5 16.9 6.6 38 7.6 SSW 20 30 11 16 1014.5 1014.5 0.0
25/10:30am 20.6 15.7 6.9 41 7.0 WSW 22 39 12 21 1014.4 1014.4 0.0
25/10:00am 20.0 15.1 6.7 42 6.7 SSW 22 32 12 17 1014.3 1014.3 0.0
25/09:30am 19.0 13.8 7.4 47 5.9 SW 24 33 13 18 1014.2 1014.2 0.0
25/09:00am 18.3 13.4 7.1 48 5.6 WSW 22 30 12 16 1014.1 1014.1 6.0
25/08:30am 17.2 12.9 7.0 51 5.1 WSW 19 30 10 16 1014.1 1014.1 6.0
25/08:00am 16.3 11.2 7.8 57 4.3 SW 24 32 13 17 1013.7 1013.7 6.0
25/07:30am 15.8 11.9 8.8 63 3.6 WSW 19 33 10 18 1013.4 1013.4 6.0
25/07:00am 14.5 11.3 8.5 67 3.0 SW 15 22 8 12 1012.8 1012.8 6.0
25/06:30am 14.6 11.4 8.3 66 3.2 SSW 15 26 8 14 1012.1 1012.1 6.0
25/06:00am 13.8 12.4 9.5 75 2.2 S 7 15 4 8 1011.4 1011.3 6.0
25/05:30am 13.9 11.3 9.5 75 2.3 SSE 13 17 7 9 1010.5 1010.4 6.0
25/05:00am 14.2 10.0 9.6 74 2.4 SSW 22 30 12 16 1009.8 1009.7 6.0
25/04:30am 15.1 11.4 10.3 73 2.5 SSW 20 32 11 17 1009.0 1008.9 6.0
25/04:00am 15.8 9.7 11.6 76 2.3 SSW 35 44 19 24 1008.3 1008.2 6.0
25/03:30am 17.2 14.5 12.9 76 2.4 SW 19 30 10 16 1007.8 1007.7 6.0
25/03:00am 17.1 15.0 13.6 80 2.0 SSW 17 24 9 13 1007.4 1007.3 6.0
25/02:30am 17.3 14.8 14.0 81 1.9 SSW 20 28 11 15 1007.4 1007.3 6.0
25/02:00am 18.1 18.4 16.9 93 0.7 SW 11 19 6 10 1007.0 1006.9 6.0
25/01:30am 18.2 17.6 17.6 96 0.4 SSW 17 22 9 12 1006.7 1006.6 6.0
25/01:00am 18.7 19.2 18.4 98 0.2 SSW 13 20 7 11 1006.6 1006.5 6.0
25/12:30am 19.1 20.5 18.6 97 0.3 WNW 9 13 5 7 1005.8 1005.7 6.0
25/12:00am 18.9 19.5 18.7 99 0.1 N 13 19 7 10 1006.3 1006.2 6.0
 
Date/Time
EDT
Temp
°C
App
Temp
°C
Dew
Point
Rel
Hum
%
Delta-T
°C
Wind Press
QNH
hPa
Press
MSL
hPa
Rain
since 9 am
mm
Dir
 
Spd
km/h
Gust
km/h
Spd
kts
Gust
kts
24/11:43pm 18.9 20.3 18.7 99 0.1 E 9 13 5 7 1006.6 1006.5 6.0
24/11:30pm 18.9 21.6 18.7 99 0.1 SSW 2 6 1 3 1008.7 1008.6 5.8
24/11:00pm 19.3 20.8 19.0 98 0.2 E 9 11 5 6 1008.8 1008.7 5.8
24/10:30pm 19.4 21.4 18.7 96 0.4 NNW 6 13 3 7 1009.2 1009.1 4.8
24/10:00pm 19.0 21.0 18.7 98 0.2 S 6 9 3 5 1007.9 1007.8 4.2
24/09:30pm 19.1 21.0 18.6 97 0.3 NNE 6 9 3 5 1007.4 1007.3 4.2
24/09:00pm 19.3 19.6 18.8 97 0.3 N 15 20 8 11 1007.6 1007.5 4.2
24/08:30pm 18.7 20.9 18.4 98 0.2 NW 4 9 2 5 1008.2 1008.1 4.2
24/08:00pm 19.0 21.3 18.5 97 0.3 E 4 7 2 4 1007.5 1007.4 4.2
24/07:30pm 19.4 21.2 18.7 96 0.4 SSE 7 11 4 6 1007.1 1007.0 4.2
24/07:00pm 19.6 21.5 18.9 96 0.4 NW 7 9 4 5 1007.0 1006.9 4.2
24/06:30pm 19.7 22.8 18.7 94 0.6 CALM 0 0 0 0 1007.2 1007.1 4.2
24/06:00pm 19.7 22.3 18.5 93 0.7 SSE 2 7 1 4 1007.3 1007.2 4.2
24/05:30pm 19.7 20.8 18.9 95 0.5 SSW 11 13 6 7 1007.3 1007.2 4.2
24/05:00pm 19.7 22.1 18.7 94 0.6 ENE 4 7 2 4 1007.3 1007.2 4.2
24/04:30pm 19.7 21.2 19.0 96 0.4 ESE 9 11 5 6 1008.0 1007.9 4.2
24/04:00pm 19.6 21.1 18.8 95 0.5 E 9 13 5 7 1008.8 1008.7 4.0
24/03:30pm 20.1 21.8 19.3 95 0.5 ESE 9 13 5 7 1009.5 1009.4 3.2
24/03:00pm 20.5 23.8 19.0 91 0.9 CALM 0 0 0 0 1010.2 1010.1 2.6
24/02:30pm 21.1 24.4 19.0 88 1.3 CALM 0 0 0 0 1009.7 1009.6 2.4
24/02:00pm 20.9 23.0 18.1 84 1.7 NNE 4 9 2 5 1010.1 1010.0 2.2
24/01:30pm 20.9 22.4 17.7 82 2.0 NW 6 11 3 6 1010.0 1009.9 2.2
24/01:00pm 21.4 21.3 17.8 80 2.2 NNE 15 20 8 11 1009.7 1009.6 2.2
24/12:30pm 21.0 20.7 17.4 80 2.2 N 15 20 8 11 1010.0 1009.9 2.2
24/12:00pm 20.5 21.1 18.6 89 1.2 NNW 13 19 7 10 1010.4 1010.3 2.2
24/11:30am 19.8 20.3 18.3 91 0.9 N 13 15 7 8 1010.8 1010.7 1.8
24/11:00am 20.0 21.4 17.4 85 1.6 E 6 9 3 5 1011.0 1010.9 0.0
24/10:30am 20.5 21.8 17.5 83 1.8 ENE 7 15 4 8 1010.5 1010.4 0.0
24/10:00am 19.8 21.8 17.0 84 1.7 SSW 2 9 1 5 1010.2 1010.1 0.0
24/09:30am 19.5 21.4 16.7 84 1.7 S 2 6 1 3 1010.2 1010.1 0.0
24/09:00am 19.6 20.7 17.0 85 1.6 ENE 7 11 4 6 1010.4 1010.3 0.4
24/08:30am 19.9 22.0 16.3 80 2.2 CALM 0 0 0 0 1010.9 1010.8 0.4
24/08:00am 19.7 20.5 15.8 78 2.3 E 6 9 3 5 1011.5 1011.5 0.4
24/07:30am 18.7 19.5 16.3 86 1.4 SSW 7 13 4 7 1011.9 1011.9 0.4
24/07:00am 16.6 16.4 15.6 94 0.6 S 11 20 6 11 1012.3 1012.3 0.4
24/06:30am 16.0 16.7 15.5 97 0.3 S 6 7 3 4 1012.9 1012.9 0.4
24/06:00am 16.1 17.2 15.5 96 0.3 NNE 4 9 2 5 1013.1 1013.1 0.4
24/05:30am 16.4 16.1 15.4 94 0.6 NNW 11 15 6 8 1013.5 1013.5 0.4
24/05:00am 16.0 16.0 15.2 95 0.5 SW 9 17 5 9 1014.2 1014.2 0.0
24/04:30am 15.9 17.6 15.1 95 0.5 CALM 0 0 0 0 1014.1 1014.1 0.0
24/04:00am 15.9 16.3 14.8 93 0.6 SE 6 7 3 4 1014.6 1014.6 0.0
24/03:30am 15.8 16.9 14.7 93 0.6 SSW 2 9 1 5 1013.5 1013.5 0.0
24/03:00am 16.0 16.9 15.0 94 0.6 SSW 4 9 2 5 1013.8 1013.8 0.0
24/02:30am 16.6 17.1 15.1 91 0.9 W 6 9 3 5 1014.0 1014.0 0.0
24/02:00am 16.5 16.8 15.0 91 0.9 NNW 7 11 4 6 1014.8 1014.8 0.0
24/01:30am 16.6 16.6 15.1 91 0.9 N 9 11 5 6 1015.0 1015.0 0.0
24/01:00am 16.5 16.4 15.0 91 0.9 NNW 9 9 5 5 1015.3 1015.3 0.0
24/12:30am 16.4 16.4 15.3 93 0.6 NW 9 11 5 6 1015.7 1015.6 0.0
24/12:00am 16.3 18.0 15.2 93 0.6 CALM 0 0 0 0 1015.2 1015.2 0.0
 
Date/Time
EDT
Temp
°C
App
Temp
°C
Dew
Point
Rel
Hum
%
Delta-T
°C
Wind Press
QNH
hPa
Press
MSL
hPa
Rain
since 9 am
mm
Dir
 
Spd
km/h
Gust
km/h
Spd
kts
Gust
kts
23/11:30pm 16.4 18.1 15.1 92 0.8 CALM 0 0 0 0 1015.1 1015.1 0.0
23/11:00pm 16.9 18.6 15.2 90 1.0 CALM 0 0 0 0 1015.0 1015.0 0.0
23/10:30pm 17.2 17.9 15.5 90 1.0 S 6 7 3 4 1014.7 1014.7 0.0
23/10:00pm 17.2 17.7 15.5 90 1.0 S 7 9 4 5 1015.0 1015.0 0.0
23/09:30pm 17.4 18.0 15.4 88 1.2 SSE 6 9 3 5 1015.0 1015.0 0.0
23/09:00pm 17.6 18.9 15.2 86 1.4 SSW 2 7 1 4 1014.6 1014.6 0.0
23/08:30pm 17.8 18.2 15.2 85 1.5 SSE 7 11 4 6 1013.9 1013.9 0.0
23/08:00pm 18.2 18.2 15.3 83 1.7 SSE 9 13 5 7 1014.0 1014.0 0.0
23/07:30pm 19.1 18.2 14.8 76 2.5 SE 13 17 7 9 1013.6 1013.6 0.0
23/07:00pm 20.1 19.2 13.8 67 3.6 ESE 11 15 6 8 1013.3 1013.3 0.0
23/06:30pm 21.6 19.7 14.3 63 4.3 SE 17 20 9 11 1012.4 1012.4 0.0
23/06:00pm 22.5 20.9 13.8 58 5.1 ESE 15 20 8 11 1012.1 1012.1 0.0
23/05:30pm 23.1 21.2 14.1 57 5.3 ESE 17 20 9 11 1011.9 1011.9 0.0
23/05:00pm 23.2 20.7 13.4 54 5.7 E 19 24 10 13 1012.1 1012.1 0.0
23/04:30pm 23.5 21.3 14.5 57 5.3 ESE 19 28 10 15 1012.0 1012.0 0.0
23/04:00pm 23.8 21.7 14.8 57 5.4 E 19 26 10 14 1011.9 1011.9 0.0
23/03:30pm 24.4 22.8 15.9 59 5.2 ESE 19 26 10 14 1011.8 1011.8 0.0
23/03:00pm 24.0 22.3 15.8 60 5.0 SE 19 26 10 14 1012.0 1012.0 0.0
23/02:30pm 24.0 22.5 16.3 62 4.7 SSE 19 24 10 13 1012.0 1012.0 0.0
23/02:00pm 24.4 22.6 15.6 58 5.3 ESE 19 24 10 13 1011.9 1011.9 0.0
23/01:30pm 24.7 22.2 15.1 55 5.8 E 22 30 12 16 1011.6 1011.6 0.0
23/01:00pm 26.1 23.6 15.2 51 6.6 ESE 22 28 12 15 1011.6 1011.6 0.0
23/12:30pm 26.1 23.8 15.8 53 6.3 ESE 22 28 12 15 1011.6 1011.6 0.0
23/12:00pm 26.0 23.6 15.4 52 6.4 ENE 22 30 12 16 1011.6 1011.6 0.0
23/11:30am 25.6 23.2 16.4 56 5.7 SE 24 33 13 18 1011.9 1011.9 0.0
23/11:00am 26.0 23.6 17.4 59 5.4 SE 26 33 14 18 1012.0 1012.0 0.0
23/10:30am 26.5 24.9 16.4 53 6.2 E 20 28 11 15 1011.7 1011.7 0.0
23/10:00am 26.4 26.8 17.2 57 5.8 SE 11 20 6 11 1011.3 1011.2 0.0
23/09:30am 23.3 25.1 16.4 65 4.2 N 2 7 1 4 1010.8 1010.7 0.0
23/09:00am 21.6 22.7 17.2 76 2.7 SSW 7 13 4 7 1010.9 1010.8 0.0
23/08:30am 21.9 23.8 16.6 72 3.2 ESE 2 7 1 4 1011.0 1010.9 0.0
23/08:00am 21.1 22.2 16.5 75 2.8 SSE 6 7 3 4 1010.4 1010.3 0.0
23/07:30am 19.1 20.3 16.9 87 1.3 S 6 7 3 4 1010.0 1009.9 0.0
23/07:00am 17.2 19.3 16.2 94 0.6 CALM 0 0 0 0 1010.2 1010.1 0.0
23/06:30am 16.2 18.1 15.7 97 0.3 CALM 0 0 0 0 1010.4 1010.3 0.0
23/06:00am 16.0 17.9 15.7 98 0.2 CALM 0 0 0 0 1009.9 1009.8 0.0
23/05:30am 15.8 17.5 15.3 97 0.3 CALM 0 7 0 4 1009.8 1009.7 0.0
23/05:00am 15.8 16.8 15.3 97 0.3 NNE 4 6 2 3 1009.3 1009.2 0.0
23/04:30am 15.9 16.3 15.4 97 0.3 WSW 7 9 4 5 1008.9 1008.8 0.0
23/04:00am 15.9 17.6 15.3 96 0.3 CALM 0 0 0 0 1008.9 1008.8 0.0
23/03:30am 16.3 18.1 15.5 95 0.5 CALM 0 0 0 0 1008.8 1008.7 0.0
23/03:00am 16.8 17.1 16.0 95 0.5 NNW 9 13 5 7 1009.1 1009.0 0.0
23/02:30am 16.6 17.4 15.8 95 0.5 SSE 6 9 3 5 1009.1 1009.0 0.0
23/02:00am 16.8 18.8 16.0 95 0.5 CALM 0 4 0 2 1009.4 1009.3 0.0
23/01:30am 16.8 17.6 15.8 94 0.6 SSW 6 9 3 5 1009.8 1009.7 0.0
23/01:00am 16.9 18.8 15.8 93 0.6 CALM 0 0 0 0 1009.6 1009.5 0.0
23/12:30am 17.1 19.0 15.8 92 0.8 CALM 0 0 0 0 1010.2 1010.1 0.0
23/12:00am 17.3 17.9 15.8 91 0.9 N 7 9 4 5 1010.5 1010.4 0.0
 
Date/Time
EDT
Temp
°C
App
Temp
°C
Dew
Point
Rel
Hum
%
Delta-T
°C
Wind Press
QNH
hPa
Press
MSL
hPa
Rain
since 9 am
mm
Dir
 
Spd
km/h
Gust
km/h
Spd
kts
Gust
kts
22/11:30pm 17.6 19.2 15.9 90 1.0 SW 2 7 1 4 1010.7 1010.6 0.0
22/11:00pm 17.6 19.5 15.8 89 1.1 CALM 0 0 0 0 1011.0 1010.9 0.0
22/10:30pm 17.8 19.7 15.8 88 1.2 CALM 0 0 0 0 1011.2 1011.1 0.0
22/10:00pm 18.1 19.8 16.1 88 1.2 SW 2 7 1 4 1011.5 1011.5 0.0
22/09:30pm 18.7 20.7 15.9 84 1.7 CALM 0 0 0 0 1011.6 1011.6 0.0
22/09:00pm 19.4 21.4 15.9 80 2.1 CALM 0 0 0 0 1011.3 1011.2 0.0
22/08:30pm 19.7 21.7 16.0 79 2.2 CALM 0 0 0 0 1011.3 1011.2 0.0
22/08:00pm 19.9 20.8 16.0 78 2.3 S 6 7 3 4 1011.3 1011.2 0.0
22/07:30pm 20.4 20.9 15.6 74 2.9 ESE 7 11 4 6 1010.7 1010.6 0.0
22/07:00pm 21.6 21.3 15.4 68 3.7 SE 11 15 6 8 1010.9 1010.8 0.0
22/06:30pm 22.9 23.0 15.5 63 4.4 NE 9 11 5 6 1010.6 1010.5 0.0
22/06:00pm 24.0 23.2 15.2 58 5.3 NE 13 15 7 8 1010.3 1010.2 0.0
22/05:30pm 24.5 23.4 15.4 57 5.5 NE 15 19 8 10 1010.3 1010.2 0.0
22/05:00pm 24.5 22.9 15.1 55 5.6 ENE 17 22 9 12 1010.5 1010.4 0.0
22/04:30pm 25.3 23.2 15.3 54 6.0 ENE 20 26 11 14 1010.4 1010.3 0.0
22/04:00pm 25.4 23.8 15.1 53 6.2 E 17 20 9 11 1010.6 1010.5 0.0
22/03:30pm 24.8 22.4 14.3 52 6.2 NE 20 26 11 14 1010.6 1010.5 0.0
22/03:00pm 25.7 23.5 14.8 51 6.6 NE 20 30 11 16 1010.4 1010.3 0.0
22/02:30pm 25.9 23.8 13.7 47 7.2 E 17 20 9 11 1010.6 1010.5 0.0
22/02:00pm 26.4 23.9 14.2 47 7.3 E 20 26 11 14 1010.8 1010.7 0.0
22/01:30pm 27.1 25.0 15.1 47 7.3 E 20 28 11 15 1010.9 1010.8 0.0
22/01:00pm 26.2 25.1 15.3 51 6.6 E 15 20 8 11 1011.3 1011.2 0.0
22/12:30pm 26.2 25.4 16.2 54 6.2 N 15 28 8 15 1011.5 1011.5 0.0

Other Formats:

Comma delimited format used in spreadsheet applications
http://www.bom.gov.au/fwo/IDN60801/IDN60801.95931.axf

JavaScript Object Notation format (JSON) in row-major order
http://www.bom.gov.au/fwo/IDN60801/IDN60801.95931.json